PWSweather.com
Personal Weather Stations
Station Observations
KTXPLANO60
Highlands Of Russell Park, Plano, TX 75025

Highlands Of Russell ParkPlano, TX 75025

Lat: 33.10431671, Lon: -96.75176239

Elevation: 761

Station Type: Davis Wireless VP2 Plus

http://www.planoweather.com

High Low Average
Temperature 96.5°F35.8°C 78.6°F25.9°C 87.0°F30.6°C
Dew Point 74.4°F23.6°C 67.1°F19.5°C 70.5°F21.4°C
Winds 12.7 mph 20.4 kmh 2.3 mph 3.7 kmh 7.0 mph S11.3 kmh S
Wind Gusts 20.7 mph33.3 kmh 4.6 mph7.4 kmh 11.0 mph17.7 kmh
Humidity 79% 42% 60%
Pressure 29.98 in1015.2 mb 29.83 in1010.2 mb -
Precipitation 0.00 in0.0 mm - -
Hour Temp Dew Point Humidity Winds Wind Gusts Pressure Precip Precip Rate Daily Precip Total
12:00 AM 83.1°F28.4°C 72.3°F22.4°C 70% 4.6 mph SE7.4 kmh SE 11.5 mph18.5 kmh 29.85 in1010.8 mb - 0.00 in0.0 mm 0.00 in0.0 mm
12:10 AM 83.0°F28.3°C 72.2°F22.3°C 70% 3.5 mph SE5.6 kmh SE 5.8 mph9.3 kmh 29.86 in1011.2 mb - 0.00 in0.0 mm 0.00 in0.0 mm
12:20 AM 82.9°F28.3°C 71.7°F22.1°C 69% 2.3 mph SE3.7 kmh SE 6.9 mph11.1 kmh 29.86 in1011.2 mb - 0.00 in0.0 mm 0.00 in0.0 mm
12:30 AM 83.0°F28.3°C 71.8°F22.1°C 69% 5.8 mph SE9.3 kmh SE 10.4 mph16.7 kmh 29.86 in1011.2 mb - 0.00 in0.0 mm 0.00 in0.0 mm
12:40 AM 83.1°F28.4°C 71.0°F21.7°C 67% 6.9 mph SSE11.1 kmh SSE 11.5 mph18.5 kmh 29.86 in1011.2 mb - 0.00 in0.0 mm 0.00 in0.0 mm
12:50 AM 83.5°F28.6°C 70.9°F21.6°C 66% 4.6 mph SSE7.4 kmh SSE 6.9 mph11.1 kmh 29.86 in1011.2 mb - 0.00 in0.0 mm 0.00 in0.0 mm
01:00 AM 83.7°F28.7°C 70.7°F21.5°C 65% 8.1 mph SSE13.0 kmh SSE 18.4 mph29.6 kmh 29.85 in1010.8 mb - 0.00 in0.0 mm 0.00 in0.0 mm
01:10 AM 84.0°F28.9°C 70.5°F21.4°C 64% 5.8 mph SSE9.3 kmh SSE 11.5 mph18.5 kmh 29.85 in1010.8 mb - 0.00 in0.0 mm 0.00 in0.0 mm
01:20 AM 84.1°F28.9°C 70.6°F21.4°C 64% 9.2 mph S14.8 kmh S 11.5 mph18.5 kmh 29.85 in1010.8 mb - 0.00 in0.0 mm 0.00 in0.0 mm
01:30 AM 84.0°F28.9°C 70.5°F21.4°C 64% 8.1 mph S13.0 kmh S 10.4 mph16.7 kmh 29.85 in1010.8 mb - 0.00 in0.0 mm 0.00 in0.0 mm
01:40 AM 83.8°F28.8°C 70.8°F21.6°C 65% 5.8 mph SE9.3 kmh SE 9.2 mph14.8 kmh 29.86 in1011.2 mb - 0.00 in0.0 mm 0.00 in0.0 mm
01:50 AM 83.5°F28.6°C 70.5°F21.4°C 65% 6.9 mph S11.1 kmh S 11.5 mph18.5 kmh 29.86 in1011.2 mb - 0.00 in0.0 mm 0.00 in0.0 mm
02:00 AM 83.2°F28.4°C 70.7°F21.5°C 66% 6.9 mph S11.1 kmh S 11.5 mph18.5 kmh 29.86 in1011.2 mb - 0.00 in0.0 mm 0.00 in0.0 mm
02:10 AM 82.9°F28.3°C 70.4°F21.3°C 66% 5.8 mph S9.3 kmh S 9.2 mph14.8 kmh 29.86 in1011.2 mb - 0.00 in0.0 mm 0.00 in0.0 mm
02:20 AM 82.6°F28.1°C 70.1°F21.2°C 66% 4.6 mph SSE7.4 kmh SSE 9.2 mph14.8 kmh 29.86 in1011.2 mb - 0.00 in0.0 mm 0.00 in0.0 mm
02:30 AM 82.3°F27.9°C 70.3°F21.3°C 67% 5.8 mph S9.3 kmh S 6.9 mph11.1 kmh 29.85 in1010.8 mb - 0.00 in0.0 mm 0.00 in0.0 mm
02:40 AM 82.1°F27.8°C 69.6°F20.9°C 66% 6.9 mph S11.1 kmh S 9.2 mph14.8 kmh 29.85 in1010.8 mb - 0.00 in0.0 mm 0.00 in0.0 mm
02:50 AM 82.2°F27.9°C 69.7°F20.9°C 66% 9.2 mph S14.8 kmh S 11.5 mph18.5 kmh 29.86 in1011.2 mb - 0.00 in0.0 mm 0.00 in0.0 mm
03:00 AM 82.3°F27.9°C 69.8°F21.0°C 66% 5.8 mph S9.3 kmh S 11.5 mph18.5 kmh 29.86 in1011.2 mb - 0.00 in0.0 mm 0.00 in0.0 mm
03:10 AM 82.2°F27.9°C 69.7°F20.9°C 66% 9.2 mph S14.8 kmh S 11.5 mph18.5 kmh 29.86 in1011.2 mb - 0.00 in0.0 mm 0.00 in0.0 mm
03:20 AM 82.1°F27.8°C 70.1°F21.2°C 67% 6.9 mph S11.1 kmh S 13.8 mph22.2 kmh 29.86 in1011.2 mb - 0.00 in0.0 mm 0.00 in0.0 mm
03:30 AM 81.9°F27.7°C 69.9°F21.1°C 67% 8.1 mph S13.0 kmh S 11.5 mph18.5 kmh 29.86 in1011.2 mb - 0.00 in0.0 mm 0.00 in0.0 mm
03:40 AM 81.7°F27.6°C 69.7°F20.9°C 67% 8.1 mph S13.0 kmh S 11.5 mph18.5 kmh 29.86 in1011.2 mb - 0.00 in0.0 mm 0.00 in0.0 mm
03:50 AM 81.6°F27.6°C 70.0°F21.1°C 68% 8.1 mph S13.0 kmh S 11.5 mph18.5 kmh 29.86 in1011.2 mb - 0.00 in0.0 mm 0.00 in0.0 mm
04:00 AM 81.3°F27.4°C 69.7°F20.9°C 68% 9.2 mph S14.8 kmh S 12.7 mph20.4 kmh 29.86 in1011.2 mb - 0.00 in0.0 mm 0.00 in0.0 mm
04:10 AM 81.2°F27.3°C 70.1°F21.2°C 69% 9.2 mph S14.8 kmh S 12.7 mph20.4 kmh 29.87 in1011.5 mb - 0.00 in0.0 mm 0.00 in0.0 mm
04:20 AM 81.1°F27.3°C 69.9°F21.1°C 69% 6.9 mph S11.1 kmh S 11.5 mph18.5 kmh 29.88 in1011.9 mb - 0.00 in0.0 mm 0.00 in0.0 mm
04:30 AM 80.9°F27.2°C 70.2°F21.2°C 70% 8.1 mph S13.0 kmh S 16.1 mph25.9 kmh 29.88 in1011.9 mb - 0.00 in0.0 mm 0.00 in0.0 mm
04:40 AM 80.6°F27.0°C 69.9°F21.1°C 70% 6.9 mph S11.1 kmh S 12.7 mph20.4 kmh 29.88 in1011.9 mb - 0.00 in0.0 mm 0.00 in0.0 mm
04:50 AM 80.4°F26.9°C 70.1°F21.2°C 71% 9.2 mph S14.8 kmh S 17.3 mph27.8 kmh 29.89 in1012.2 mb - 0.00 in0.0 mm 0.00 in0.0 mm
05:00 AM 80.3°F26.8°C 70.0°F21.1°C 71% 6.9 mph SSE11.1 kmh SSE 11.5 mph18.5 kmh 29.89 in1012.2 mb - 0.00 in0.0 mm 0.00 in0.0 mm
05:10 AM 80.1°F26.7°C 70.3°F21.3°C 72% 5.8 mph S9.3 kmh S 12.7 mph20.4 kmh 29.90 in1012.5 mb - 0.00 in0.0 mm 0.00 in0.0 mm
05:20 AM 79.9°F26.6°C 70.1°F21.2°C 72% 5.8 mph S9.3 kmh S 6.9 mph11.1 kmh 29.90 in1012.5 mb - 0.00 in0.0 mm 0.00 in0.0 mm
05:30 AM 79.7°F26.5°C 70.3°F21.3°C 73% 8.1 mph S13.0 kmh S 11.5 mph18.5 kmh 29.90 in1012.5 mb - 0.00 in0.0 mm 0.00 in0.0 mm
05:40 AM 79.6°F26.4°C 70.2°F21.2°C 73% 6.9 mph S11.1 kmh S 11.5 mph18.5 kmh 29.91 in1012.9 mb - 0.00 in0.0 mm 0.00 in0.0 mm
05:50 AM 79.4°F26.3°C 70.0°F21.1°C 73% 8.1 mph S13.0 kmh S 11.5 mph18.5 kmh 29.91 in1012.9 mb - 0.00 in0.0 mm 0.00 in0.0 mm
06:00 AM 79.3°F26.3°C 70.3°F21.3°C 74% 6.9 mph S11.1 kmh S 9.2 mph14.8 kmh 29.92 in1013.2 mb - 0.00 in0.0 mm 0.00 in0.0 mm
06:10 AM 79.3°F26.3°C 70.3°F21.3°C 74% 10.4 mph S16.7 kmh S 16.1 mph25.9 kmh 29.92 in1013.2 mb - 0.00 in0.0 mm 0.00 in0.0 mm
06:20 AM 79.2°F26.2°C 70.2°F21.2°C 74% 6.9 mph S11.1 kmh S 11.5 mph18.5 kmh 29.92 in1013.2 mb - 0.00 in0.0 mm 0.00 in0.0 mm
06:30 AM 79.1°F26.2°C 70.1°F21.2°C 74% 8.1 mph S13.0 kmh S 11.5 mph18.5 kmh 29.92 in1013.2 mb - 0.00 in0.0 mm 0.00 in0.0 mm
06:40 AM 78.9°F26.1°C 69.9°F21.1°C 74% 5.8 mph S9.3 kmh S 10.4 mph16.7 kmh 29.93 in1013.5 mb - 0.00 in0.0 mm 0.00 in0.0 mm
06:50 AM 78.7°F25.9°C 70.1°F21.2°C 75% 9.2 mph S14.8 kmh S 12.7 mph20.4 kmh 29.92 in1013.2 mb - 0.00 in0.0 mm 0.00 in0.0 mm
07:00 AM 78.7°F25.9°C 70.5°F21.4°C 76% 6.9 mph S11.1 kmh S 10.4 mph16.7 kmh 29.93 in1013.5 mb - 0.00 in0.0 mm 0.00 in0.0 mm
07:10 AM 78.6°F25.9°C 70.4°F21.3°C 76% 8.1 mph S13.0 kmh S 13.8 mph22.2 kmh 29.93 in1013.5 mb - 0.00 in0.0 mm 0.00 in0.0 mm
07:20 AM 78.7°F25.9°C 70.9°F21.6°C 77% 9.2 mph S14.8 kmh S 11.5 mph18.5 kmh 29.93 in1013.5 mb - 0.00 in0.0 mm 0.00 in0.0 mm
07:30 AM 78.7°F25.9°C 70.9°F21.6°C 77% 12.7 mph S20.4 kmh S 18.4 mph29.6 kmh 29.93 in1013.5 mb - 0.00 in0.0 mm 0.00 in0.0 mm
07:40 AM 78.8°F26.0°C 71.3°F21.8°C 78% 10.4 mph S16.7 kmh S 12.7 mph20.4 kmh 29.93 in1013.5 mb - 0.00 in0.0 mm 0.00 in0.0 mm
07:50 AM 79.0°F26.1°C 71.5°F21.9°C 78% 9.2 mph S14.8 kmh S 12.7 mph20.4 kmh 29.93 in1013.5 mb - 0.00 in0.0 mm 0.00 in0.0 mm
08:00 AM 79.2°F26.2°C 71.8°F22.1°C 78% 8.1 mph S13.0 kmh S 19.6 mph31.5 kmh 29.93 in1013.5 mb - 0.00 in0.0 mm 0.00 in0.0 mm
08:10 AM 79.4°F26.3°C 72.3°F22.4°C 79% 2.3 mph S3.7 kmh S 8.1 mph13.0 kmh 29.94 in1013.9 mb - 0.00 in0.0 mm 0.00 in0.0 mm
08:20 AM 79.7°F26.5°C 72.2°F22.3°C 78% 8.1 mph S13.0 kmh S 12.7 mph20.4 kmh 29.95 in1014.2 mb - 0.00 in0.0 mm 0.00 in0.0 mm
08:30 AM 80.1°F26.7°C 72.3°F22.4°C 77% 9.2 mph S14.8 kmh S 19.6 mph31.5 kmh 29.95 in1014.2 mb - 0.00 in0.0 mm 0.00 in0.0 mm
08:40 AM 80.4°F26.9°C 72.9°F22.7°C 78% 6.9 mph S11.1 kmh S 11.5 mph18.5 kmh 29.95 in1014.2 mb - 0.00 in0.0 mm 0.00 in0.0 mm
08:50 AM 80.5°F26.9°C 73.0°F22.8°C 78% 8.1 mph S13.0 kmh S 13.8 mph22.2 kmh 29.95 in1014.2 mb - 0.00 in0.0 mm 0.00 in0.0 mm
09:00 AM 80.5°F26.9°C 73.0°F22.8°C 78% 10.4 mph S16.7 kmh S 17.3 mph27.8 kmh 29.95 in1014.2 mb - 0.00 in0.0 mm 0.00 in0.0 mm
09:10 AM 80.6°F27.0°C 73.1°F22.8°C 78% 10.4 mph S16.7 kmh S 15.0 mph24.1 kmh 29.96 in1014.6 mb - 0.00 in0.0 mm 0.00 in0.0 mm
09:20 AM 81.1°F27.3°C 73.2°F22.9°C 77% 12.7 mph S20.4 kmh S 20.7 mph33.3 kmh 29.96 in1014.6 mb - 0.00 in0.0 mm 0.00 in0.0 mm
09:30 AM 81.6°F27.6°C 73.3°F22.9°C 76% 9.2 mph S14.8 kmh S 12.7 mph20.4 kmh 29.96 in1014.6 mb - 0.00 in0.0 mm 0.00 in0.0 mm
09:40 AM 82.2°F27.9°C 73.5°F23.1°C 75% 8.1 mph S13.0 kmh S 12.7 mph20.4 kmh 29.96 in1014.6 mb - 0.00 in0.0 mm 0.00 in0.0 mm
09:50 AM 82.7°F28.2°C 73.2°F22.9°C 73% 10.4 mph S16.7 kmh S 16.1 mph25.9 kmh 29.96 in1014.6 mb - 0.00 in0.0 mm 0.00 in0.0 mm
10:00 AM 83.1°F28.4°C 73.5°F23.1°C 73% 5.8 mph SSW9.3 kmh SSW 12.7 mph20.4 kmh 29.96 in1014.6 mb - 0.00 in0.0 mm 0.00 in0.0 mm
10:10 AM 83.6°F28.7°C 74.0°F23.3°C 73% 4.6 mph S7.4 kmh S 11.5 mph18.5 kmh 29.96 in1014.6 mb - 0.00 in0.0 mm 0.00 in0.0 mm
10:20 AM 84.9°F29.4°C 74.4°F23.6°C 71% 9.2 mph S14.8 kmh S 19.6 mph31.5 kmh 29.96 in1014.6 mb - 0.00 in0.0 mm 0.00 in0.0 mm
10:30 AM 85.2°F29.6°C 73.9°F23.3°C 69% 9.2 mph S14.8 kmh S 18.4 mph29.6 kmh 29.96 in1014.6 mb - 0.00 in0.0 mm 0.00 in0.0 mm
10:40 AM 85.2°F29.6°C 74.3°F23.5°C 70% 8.1 mph S13.0 kmh S 11.5 mph18.5 kmh 29.97 in1014.9 mb - 0.00 in0.0 mm 0.00 in0.0 mm
10:50 AM 85.1°F29.5°C 73.3°F22.9°C 68% 9.2 mph S14.8 kmh S 15.0 mph24.1 kmh 29.97 in1014.9 mb - 0.00 in0.0 mm 0.00 in0.0 mm
11:00 AM 84.8°F29.3°C 73.1°F22.8°C 68% 8.1 mph S13.0 kmh S 16.1 mph25.9 kmh 29.97 in1014.9 mb - 0.00 in0.0 mm 0.00 in0.0 mm
11:10 AM 85.2°F29.6°C 73.4°F23.0°C 68% 11.5 mph S18.5 kmh S 16.1 mph25.9 kmh 29.97 in1014.9 mb - 0.00 in0.0 mm 0.00 in0.0 mm
11:20 AM 85.7°F29.8°C 73.4°F23.0°C 67% 9.2 mph S14.8 kmh S 18.4 mph29.6 kmh 29.97 in1014.9 mb - 0.00 in0.0 mm 0.00 in0.0 mm
11:30 AM 86.0°F30.0°C 73.8°F23.2°C 67% 10.4 mph S16.7 kmh S 13.8 mph22.2 kmh 29.98 in1015.2 mb - 0.00 in0.0 mm 0.00 in0.0 mm
11:40 AM 86.8°F30.4°C 73.6°F23.1°C 65% 10.4 mph S16.7 kmh S 11.5 mph18.5 kmh 29.97 in1014.9 mb - 0.00 in0.0 mm 0.00 in0.0 mm
11:50 AM 87.5°F30.8°C 74.3°F23.5°C 65% 10.4 mph SSW16.7 kmh SSW 15.0 mph24.1 kmh 29.98 in1015.2 mb - 0.00 in0.0 mm 0.00 in0.0 mm
12:00 PM 87.6°F30.9°C 73.0°F22.8°C 62% 8.1 mph SSW13.0 kmh SSW 13.8 mph22.2 kmh 29.97 in1014.9 mb - 0.00 in0.0 mm 0.00 in0.0 mm
12:10 PM 88.1°F31.2°C 73.4°F23.0°C 62% 8.1 mph SSE13.0 kmh SSE 11.5 mph18.5 kmh 29.97 in1014.9 mb - 0.00 in0.0 mm 0.00 in0.0 mm
12:20 PM 88.9°F31.6°C 74.2°F23.4°C 62% 5.8 mph SSE9.3 kmh SSE 12.7 mph20.4 kmh 29.96 in1014.6 mb - 0.00 in0.0 mm 0.00 in0.0 mm
12:30 PM 89.4°F31.9°C 73.7°F23.2°C 60% 4.6 mph SW7.4 kmh SW 8.1 mph13.0 kmh 29.96 in1014.6 mb - 0.00 in0.0 mm 0.00 in0.0 mm
12:40 PM 89.8°F32.1°C 73.6°F23.1°C 59% 5.8 mph S9.3 kmh S 11.5 mph18.5 kmh 29.96 in1014.6 mb - 0.00 in0.0 mm 0.00 in0.0 mm
12:50 PM 90.2°F32.3°C 73.9°F23.3°C 59% 10.4 mph SSW16.7 kmh SSW 17.3 mph27.8 kmh 29.95 in1014.2 mb - 0.00 in0.0 mm 0.00 in0.0 mm
01:00 PM 90.6°F32.6°C 73.3°F22.9°C 57% 3.5 mph S5.6 kmh S 4.6 mph7.4 kmh 29.95 in1014.2 mb - 0.00 in0.0 mm 0.00 in0.0 mm
01:10 PM 91.0°F32.8°C 72.6°F22.6°C 55% 9.2 mph S14.8 kmh S 11.5 mph18.5 kmh 29.95 in1014.2 mb - 0.00 in0.0 mm 0.00 in0.0 mm
01:20 PM 90.7°F32.6°C 71.7°F22.1°C 54% 10.4 mph S16.7 kmh S 13.8 mph22.2 kmh 29.94 in1013.9 mb - 0.00 in0.0 mm 0.00 in0.0 mm
01:30 PM 91.2°F32.9°C 72.8°F22.7°C 55% 5.8 mph SSW9.3 kmh SSW 8.1 mph13.0 kmh 29.94 in1013.9 mb - 0.00 in0.0 mm 0.00 in0.0 mm
01:40 PM 91.6°F33.1°C 71.4°F21.9°C 52% 6.9 mph S11.1 kmh S 10.4 mph16.7 kmh 29.94 in1013.9 mb - 0.00 in0.0 mm 0.00 in0.0 mm
01:50 PM 92.4°F33.6°C 71.6°F22.0°C 51% 9.2 mph SSE14.8 kmh SSE 17.3 mph27.8 kmh 29.94 in1013.9 mb - 0.00 in0.0 mm 0.00 in0.0 mm
02:00 PM 92.5°F33.6°C 71.7°F22.1°C 51% 6.9 mph SSW11.1 kmh SSW 18.4 mph29.6 kmh 29.93 in1013.5 mb - 0.00 in0.0 mm 0.00 in0.0 mm
02:10 PM 92.4°F33.6°C 71.6°F22.0°C 51% 8.1 mph S13.0 kmh S 6.9 mph11.1 kmh 29.92 in1013.2 mb - 0.00 in0.0 mm 0.00 in0.0 mm
02:20 PM 93.1°F33.9°C 71.1°F21.7°C 49% 8.1 mph S13.0 kmh S 15.0 mph24.1 kmh 29.91 in1012.9 mb - 0.00 in0.0 mm 0.00 in0.0 mm
02:30 PM 93.4°F34.1°C 71.4°F21.9°C 49% 8.1 mph S13.0 kmh S 10.4 mph16.7 kmh 29.92 in1013.2 mb - 0.00 in0.0 mm 0.00 in0.0 mm
02:40 PM 93.8°F34.3°C 71.1°F21.7°C 48% 4.6 mph SSW7.4 kmh SSW 11.5 mph18.5 kmh 29.91 in1012.9 mb - 0.00 in0.0 mm 0.00 in0.0 mm
02:50 PM 94.2°F34.6°C 69.6°F20.9°C 45% 4.6 mph SW7.4 kmh SW 10.4 mph16.7 kmh 29.91 in1012.9 mb - 0.00 in0.0 mm 0.00 in0.0 mm
03:00 PM 94.3°F34.6°C 70.4°F21.3°C 46% 6.9 mph SSW11.1 kmh SSW 11.5 mph18.5 kmh 29.90 in1012.5 mb - 0.00 in0.0 mm 0.00 in0.0 mm
03:10 PM 95.0°F35.0°C 71.6°F22.0°C 47% 3.5 mph S5.6 kmh S 11.5 mph18.5 kmh 29.90 in1012.5 mb - 0.00 in0.0 mm 0.00 in0.0 mm
03:20 PM 95.1°F35.1°C 69.1°F20.6°C 43% 5.8 mph S9.3 kmh S 13.8 mph22.2 kmh 29.90 in1012.5 mb - 0.00 in0.0 mm 0.00 in0.0 mm
03:30 PM 95.1°F35.1°C 70.4°F21.3°C 45% 9.2 mph S14.8 kmh S 11.5 mph18.5 kmh 29.90 in1012.5 mb - 0.00 in0.0 mm 0.00 in0.0 mm
03:40 PM 95.3°F35.2°C 69.9°F21.1°C 44% 3.5 mph SW5.6 kmh SW 6.9 mph11.1 kmh 29.90 in1012.5 mb - 0.00 in0.0 mm 0.00 in0.0 mm
03:50 PM 95.1°F35.1°C 71.1°F21.7°C 46% 3.5 mph SW5.6 kmh SW 9.2 mph14.8 kmh 29.89 in1012.2 mb - 0.00 in0.0 mm 0.00 in0.0 mm
04:00 PM 96.2°F35.7°C 70.7°F21.5°C 44% 6.9 mph S11.1 kmh S 13.8 mph22.2 kmh 29.89 in1012.2 mb - 0.00 in0.0 mm 0.00 in0.0 mm
04:10 PM 96.2°F35.7°C 71.4°F21.9°C 45% 6.9 mph SSE11.1 kmh SSE 12.7 mph20.4 kmh 29.89 in1012.2 mb - 0.00 in0.0 mm 0.00 in0.0 mm
04:20 PM 95.8°F35.4°C 71.1°F21.7°C 45% 3.5 mph S5.6 kmh S 9.2 mph14.8 kmh 29.88 in1011.9 mb - 0.00 in0.0 mm 0.00 in0.0 mm
04:30 PM 96.2°F35.7°C 71.4°F21.9°C 45% 2.3 mph S3.7 kmh S 5.8 mph9.3 kmh 29.88 in1011.9 mb - 0.00 in0.0 mm 0.00 in0.0 mm
04:40 PM 96.5°F35.8°C 70.3°F21.3°C 43% 4.6 mph S7.4 kmh S 8.1 mph13.0 kmh 29.87 in1011.5 mb - 0.00 in0.0 mm 0.00 in0.0 mm
04:50 PM 96.5°F35.8°C 71.7°F22.1°C 45% 4.6 mph S7.4 kmh S 9.2 mph14.8 kmh 29.86 in1011.2 mb - 0.00 in0.0 mm 0.00 in0.0 mm
05:00 PM 96.5°F35.8°C 69.7°F20.9°C 42% 3.5 mph SE5.6 kmh SE 11.5 mph18.5 kmh 29.86 in1011.2 mb - 0.00 in0.0 mm 0.00 in0.0 mm
05:10 PM 96.5°F35.8°C 69.6°F20.9°C 42% 3.5 mph S5.6 kmh S 4.6 mph7.4 kmh 29.86 in1011.2 mb - 0.00 in0.0 mm 0.00 in0.0 mm
05:20 PM 96.0°F35.6°C 69.2°F20.7°C 42% 5.8 mph SSE9.3 kmh SSE 6.9 mph11.1 kmh 29.85 in1010.8 mb - 0.00 in0.0 mm 0.00 in0.0 mm
05:30 PM 95.6°F35.3°C 70.2°F21.2°C 44% 4.6 mph SSE7.4 kmh SSE 6.9 mph11.1 kmh 29.86 in1011.2 mb - 0.00 in0.0 mm 0.00 in0.0 mm
05:40 PM 95.2°F35.1°C 69.8°F21.0°C 44% 5.8 mph SSE9.3 kmh SSE 9.2 mph14.8 kmh 29.86 in1011.2 mb - 0.00 in0.0 mm 0.00 in0.0 mm
05:50 PM 95.0°F35.0°C 70.3°F21.3°C 45% 5.8 mph S9.3 kmh S 8.1 mph13.0 kmh 29.85 in1010.8 mb - 0.00 in0.0 mm 0.00 in0.0 mm
06:00 PM 95.0°F35.0°C 70.3°F21.3°C 45% 6.9 mph SE11.1 kmh SE 9.2 mph14.8 kmh 29.84 in1010.5 mb - 0.00 in0.0 mm 0.00 in0.0 mm
06:10 PM 94.9°F34.9°C 69.6°F20.9°C 44% 4.6 mph S7.4 kmh S 9.2 mph14.8 kmh 29.84 in1010.5 mb - 0.00 in0.0 mm 0.00 in0.0 mm
06:20 PM 94.9°F34.9°C 70.2°F21.2°C 45% 3.5 mph S5.6 kmh S 11.5 mph18.5 kmh 29.84 in1010.5 mb - 0.00 in0.0 mm 0.00 in0.0 mm
06:30 PM 94.7°F34.8°C 69.4°F20.8°C 44% 5.8 mph SE9.3 kmh SE 6.9 mph11.1 kmh 29.84 in1010.5 mb - 0.00 in0.0 mm 0.00 in0.0 mm
06:40 PM 94.3°F34.6°C 68.4°F20.2°C 43% 10.4 mph S16.7 kmh S 12.7 mph20.4 kmh 29.84 in1010.5 mb - 0.00 in0.0 mm 0.00 in0.0 mm
06:50 PM 94.0°F34.4°C 68.8°F20.4°C 44% 8.1 mph SE13.0 kmh SE 13.8 mph22.2 kmh 29.84 in1010.5 mb - 0.00 in0.0 mm 0.00 in0.0 mm
07:00 PM 93.7°F34.3°C 68.5°F20.3°C 44% 3.5 mph SE5.6 kmh SE 6.9 mph11.1 kmh 29.83 in1010.2 mb - 0.00 in0.0 mm 0.00 in0.0 mm
07:10 PM 93.5°F34.2°C 67.6°F19.8°C 43% 5.8 mph SSE9.3 kmh SSE 9.2 mph14.8 kmh 29.84 in1010.5 mb - 0.00 in0.0 mm 0.00 in0.0 mm
07:20 PM 93.4°F34.1°C 67.6°F19.8°C 43% 8.1 mph SSE13.0 kmh SSE 9.2 mph14.8 kmh 29.84 in1010.5 mb - 0.00 in0.0 mm 0.00 in0.0 mm
07:30 PM 93.2°F34.0°C 67.4°F19.7°C 43% 5.8 mph SSE9.3 kmh SSE 8.1 mph13.0 kmh 29.84 in1010.5 mb - 0.00 in0.0 mm 0.00 in0.0 mm
07:40 PM 92.9°F33.8°C 67.1°F19.5°C 43% 5.8 mph SSE9.3 kmh SSE 8.1 mph13.0 kmh 29.84 in1010.5 mb - 0.00 in0.0 mm 0.00 in0.0 mm
07:50 PM 92.7°F33.7°C 67.6°F19.8°C 44% 5.8 mph SSE9.3 kmh SSE 8.1 mph13.0 kmh 29.84 in1010.5 mb - 0.00 in0.0 mm 0.00 in0.0 mm
08:00 PM 92.6°F33.7°C 67.5°F19.7°C 44% 6.9 mph SE11.1 kmh SE 9.2 mph14.8 kmh 29.84 in1010.5 mb - 0.00 in0.0 mm 0.00 in0.0 mm
08:10 PM 92.3°F33.5°C 68.5°F20.3°C 46% 5.8 mph SE9.3 kmh SE 5.8 mph9.3 kmh 29.84 in1010.5 mb - 0.00 in0.0 mm 0.00 in0.0 mm
08:20 PM 91.7°F33.2°C 69.2°F20.7°C 48% 9.2 mph SE14.8 kmh SE 12.7 mph20.4 kmh 29.84 in1010.5 mb - 0.00 in0.0 mm 0.00 in0.0 mm
08:30 PM 91.1°F32.8°C 69.3°F20.7°C 49% 6.9 mph SE11.1 kmh SE 11.5 mph18.5 kmh 29.84 in1010.5 mb - 0.00 in0.0 mm 0.00 in0.0 mm
08:40 PM 90.6°F32.6°C 69.4°F20.8°C 50% 2.3 mph SE3.7 kmh SE 11.5 mph18.5 kmh 29.84 in1010.5 mb - 0.00 in0.0 mm 0.00 in0.0 mm
08:50 PM 90.1°F32.3°C 69.0°F20.6°C 50% 5.8 mph SE9.3 kmh SE 5.8 mph9.3 kmh 29.85 in1010.8 mb - 0.00 in0.0 mm 0.00 in0.0 mm
09:00 PM 89.8°F32.1°C 68.7°F20.4°C 50% 4.6 mph SE7.4 kmh SE 8.1 mph13.0 kmh 29.85 in1010.8 mb - 0.00 in0.0 mm 0.00 in0.0 mm
09:10 PM 89.5°F31.9°C 68.4°F20.2°C 50% 4.6 mph SE7.4 kmh SE 5.8 mph9.3 kmh 29.86 in1011.2 mb - 0.00 in0.0 mm 0.00 in0.0 mm
09:20 PM 89.2°F31.8°C 68.7°F20.4°C 51% 3.5 mph SE5.6 kmh SE 5.8 mph9.3 kmh 29.86 in1011.2 mb - 0.00 in0.0 mm 0.00 in0.0 mm
09:30 PM 89.0°F31.7°C 68.5°F20.3°C 51% 2.3 mph SE3.7 kmh SE 5.8 mph9.3 kmh 29.86 in1011.2 mb - 0.00 in0.0 mm 0.00 in0.0 mm
09:40 PM 88.8°F31.6°C 68.9°F20.5°C 52% 2.3 mph SE3.7 kmh SE 5.8 mph9.3 kmh 29.87 in1011.5 mb - 0.00 in0.0 mm 0.00 in0.0 mm
09:50 PM 88.6°F31.4°C 69.3°F20.7°C 53% 4.6 mph SE7.4 kmh SE 9.2 mph14.8 kmh 29.88 in1011.9 mb - 0.00 in0.0 mm 0.00 in0.0 mm
10:00 PM 88.3°F31.3°C 69.5°F20.8°C 54% 3.5 mph SE5.6 kmh SE 11.5 mph18.5 kmh 29.88 in1011.9 mb - 0.00 in0.0 mm 0.00 in0.0 mm
10:10 PM 88.0°F31.1°C 69.3°F20.7°C 54% 5.8 mph SE9.3 kmh SE 11.5 mph18.5 kmh 29.88 in1011.9 mb - 0.00 in0.0 mm 0.00 in0.0 mm
10:20 PM 87.6°F30.9°C 69.5°F20.8°C 55% 4.6 mph SE7.4 kmh SE 5.8 mph9.3 kmh 29.89 in1012.2 mb - 0.00 in0.0 mm 0.00 in0.0 mm
10:30 PM 87.4°F30.8°C 69.3°F20.7°C 55% 4.6 mph SE7.4 kmh SE 9.2 mph14.8 kmh 29.89 in1012.2 mb - 0.00 in0.0 mm 0.00 in0.0 mm
10:40 PM 87.2°F30.7°C 69.6°F20.9°C 56% 2.3 mph SE3.7 kmh SE 6.9 mph11.1 kmh 29.89 in1012.2 mb - 0.00 in0.0 mm 0.00 in0.0 mm
10:50 PM 86.9°F30.5°C 69.3°F20.7°C 56% 6.9 mph SE11.1 kmh SE 11.5 mph18.5 kmh 29.89 in1012.2 mb - 0.00 in0.0 mm 0.00 in0.0 mm
11:00 PM 86.8°F30.4°C 68.7°F20.4°C 55% 5.8 mph SE9.3 kmh SE 11.5 mph18.5 kmh 29.89 in1012.2 mb - 0.00 in0.0 mm 0.00 in0.0 mm
11:10 PM 86.7°F30.4°C 68.6°F20.3°C 55% 4.6 mph SE7.4 kmh SE 6.9 mph11.1 kmh 29.90 in1012.5 mb - 0.00 in0.0 mm 0.00 in0.0 mm
11:20 PM 86.6°F30.3°C 68.0°F20.0°C 54% 6.9 mph SE11.1 kmh SE 11.5 mph18.5 kmh 29.89 in1012.2 mb - 0.00 in0.0 mm 0.00 in0.0 mm
11:30 PM 86.6°F30.3°C 68.0°F20.0°C 54% 5.8 mph SE9.3 kmh SE 9.2 mph14.8 kmh 29.90 in1012.5 mb - 0.00 in0.0 mm 0.00 in0.0 mm
11:40 PM 86.6°F30.3°C 68.0°F20.0°C 54% 5.8 mph SSE9.3 kmh SSE 8.1 mph13.0 kmh 29.89 in1012.2 mb - 0.00 in0.0 mm 0.00 in0.0 mm
11:50 PM 86.4°F30.2°C 68.3°F20.2°C 55% 6.9 mph SE11.1 kmh SE 8.1 mph13.0 kmh 29.89 in1012.2 mb - 0.00 in0.0 mm 0.00 in0.0 mm